sensor_id;sensor_type;location;lat;lon;timestamp;temperature;humidity
20740;DHT22;10530;49.968;19.844;2023-06-04T00:01:39;7.90;99.90
20740;DHT22;10530;49.968;19.844;2023-06-04T00:06:42;7.30;99.90
20740;DHT22;10530;49.968;19.844;2023-06-04T00:11:46;7.10;99.90
20740;DHT22;10530;49.968;19.844;2023-06-04T00:16:49;6.80;99.90
20740;DHT22;10530;49.968;19.844;2023-06-04T00:21:52;6.50;99.90
20740;DHT22;10530;49.968;19.844;2023-06-04T00:26:54;6.50;99.90
20740;DHT22;10530;49.968;19.844;2023-06-04T00:31:57;6.30;99.90
20740;DHT22;10530;49.968;19.844;2023-06-04T00:37:00;6.30;99.90
20740;DHT22;10530;49.968;19.844;2023-06-04T00:42:04;6.30;99.90
20740;DHT22;10530;49.968;19.844;2023-06-04T00:47:07;6.20;99.90
20740;DHT22;10530;49.968;19.844;2023-06-04T00:52:10;6.00;99.90
20740;DHT22;10530;49.968;19.844;2023-06-04T00:57:15;5.80;99.90
20740;DHT22;10530;49.968;19.844;2023-06-04T01:02:21;5.80;99.90
20740;DHT22;10530;49.968;19.844;2023-06-04T01:07:27;5.80;99.90
20740;DHT22;10530;49.968;19.844;2023-06-04T01:12:31;5.70;99.90
20740;DHT22;10530;49.968;19.844;2023-06-04T01:17:48;5.60;99.90
20740;DHT22;10530;49.968;19.844;2023-06-04T01:22:56;5.50;99.90
20740;DHT22;10530;49.968;19.844;2023-06-04T01:28:07;5.30;99.90
20740;DHT22;10530;49.968;19.844;2023-06-04T01:33:19;5.40;99.90
20740;DHT22;10530;49.968;19.844;2023-06-04T01:38:23;5.40;99.90
20740;DHT22;10530;49.968;19.844;2023-06-04T01:43:25;5.20;99.90
20740;DHT22;10530;49.968;19.844;2023-06-04T01:48:28;5.30;99.90
20740;DHT22;10530;49.968;19.844;2023-06-04T01:53:32;5.20;99.90
20740;DHT22;10530;49.968;19.844;2023-06-04T01:58:35;5.10;99.90
20740;DHT22;10530;49.968;19.844;2023-06-04T02:03:37;5.00;99.90
20740;DHT22;10530;49.968;19.844;2023-06-04T02:08:43;4.90;99.90
20740;DHT22;10530;49.968;19.844;2023-06-04T02:13:45;4.90;99.90
20740;DHT22;10530;49.968;19.844;2023-06-04T02:18:48;4.90;99.90
20740;DHT22;10530;49.968;19.844;2023-06-04T02:23:51;4.70;99.90
20740;DHT22;10530;49.968;19.844;2023-06-04T02:28:55;4.60;99.90
20740;DHT22;10530;49.968;19.844;2023-06-04T02:33:58;4.60;99.90
20740;DHT22;10530;49.968;19.844;2023-06-04T02:39:00;4.60;99.90
20740;DHT22;10530;49.968;19.844;2023-06-04T02:44:03;4.60;99.90
20740;DHT22;10530;49.968;19.844;2023-06-04T02:49:06;4.60;99.90
20740;DHT22;10530;49.968;19.844;2023-06-04T02:54:09;4.60;99.90
20740;DHT22;10530;49.968;19.844;2023-06-04T02:59:12;4.50;99.90
20740;DHT22;10530;49.968;19.844;2023-06-04T03:04:16;4.60;99.90
20740;DHT22;10530;49.968;19.844;2023-06-04T03:09:20;4.60;99.90
20740;DHT22;10530;49.968;19.844;2023-06-04T03:14:23;4.60;99.90
20740;DHT22;10530;49.968;19.844;2023-06-04T03:19:26;4.70;99.90
20740;DHT22;10530;49.968;19.844;2023-06-04T03:24:28;4.80;99.90
20740;DHT22;10530;49.968;19.844;2023-06-04T03:29:32;4.90;99.90
20740;DHT22;10530;49.968;19.844;2023-06-04T03:34:37;4.90;99.90
20740;DHT22;10530;49.968;19.844;2023-06-04T03:39:40;5.10;99.90
20740;DHT22;10530;49.968;19.844;2023-06-04T03:44:46;5.20;99.90
20740;DHT22;10530;49.968;19.844;2023-06-04T03:49:49;5.40;99.90
20740;DHT22;10530;49.968;19.844;2023-06-04T03:54:53;5.60;99.90
20740;DHT22;10530;49.968;19.844;2023-06-04T03:59:56;6.10;99.90
20740;DHT22;10530;49.968;19.844;2023-06-04T04:04:59;6.90;99.90
20740;DHT22;10530;49.968;19.844;2023-06-04T04:10:03;7.60;99.90
20740;DHT22;10530;49.968;19.844;2023-06-04T04:15:08;7.80;99.90
20740;DHT22;10530;49.968;19.844;2023-06-04T04:20:11;8.10;99.90
20740;DHT22;10530;49.968;19.844;2023-06-04T04:25:21;8.40;99.90
20740;DHT22;10530;49.968;19.844;2023-06-04T04:30:25;8.60;99.90
20740;DHT22;10530;49.968;19.844;2023-06-04T04:35:28;8.90;99.90
20740;DHT22;10530;49.968;19.844;2023-06-04T04:40:33;9.20;99.90
20740;DHT22;10530;49.968;19.844;2023-06-04T04:45:38;9.50;99.90
20740;DHT22;10530;49.968;19.844;2023-06-04T04:50:44;9.80;99.90
20740;DHT22;10530;49.968;19.844;2023-06-04T04:55:47;10.10;99.90
20740;DHT22;10530;49.968;19.844;2023-06-04T05:00:51;10.40;99.90
20740;DHT22;10530;49.968;19.844;2023-06-04T05:05:54;10.60;99.90
20740;DHT22;10530;49.968;19.844;2023-06-04T05:10:57;11.00;99.90
20740;DHT22;10530;49.968;19.844;2023-06-04T05:16:00;11.30;99.90
20740;DHT22;10530;49.968;19.844;2023-06-04T05:21:12;11.60;99.90
20740;DHT22;10530;49.968;19.844;2023-06-04T05:26:21;12.00;99.90
20740;DHT22;10530;49.968;19.844;2023-06-04T05:31:27;12.20;99.90
20740;DHT22;10530;49.968;19.844;2023-06-04T05:36:33;12.40;99.90
20740;DHT22;10530;49.968;19.844;2023-06-04T05:41:41;12.90;99.90
20740;DHT22;10530;49.968;19.844;2023-06-04T05:46:44;13.30;99.90
20740;DHT22;10530;49.968;19.844;2023-06-04T05:51:48;13.50;99.90
20740;DHT22;10530;49.968;19.844;2023-06-04T05:56:52;13.80;99.90
20740;DHT22;10530;49.968;19.844;2023-06-04T06:01:56;14.20;99.90
20740;DHT22;10530;49.968;19.844;2023-06-04T06:06:59;14.50;99.90
20740;DHT22;10530;49.968;19.844;2023-06-04T06:12:03;14.70;99.90
20740;DHT22;10530;49.968;19.844;2023-06-04T06:17:06;14.80;99.90
20740;DHT22;10530;49.968;19.844;2023-06-04T06:22:09;15.30;99.90
20740;DHT22;10530;49.968;19.844;2023-06-04T06:27:13;16.00;99.90
20740;DHT22;10530;49.968;19.844;2023-06-04T06:32:15;16.40;96.30
20740;DHT22;10530;49.968;19.844;2023-06-04T06:37:19;16.30;96.50
20740;DHT22;10530;49.968;19.844;2023-06-04T06:42:21;17.00;93.50
20740;DHT22;10530;49.968;19.844;2023-06-04T06:47:26;17.40;89.10
20740;DHT22;10530;49.968;19.844;2023-06-04T06:52:28;17.60;86.90
20740;DHT22;10530;49.968;19.844;2023-06-04T06:57:35;17.90;76.30
20740;DHT22;10530;49.968;19.844;2023-06-04T07:02:39;18.10;75.60
20740;DHT22;10530;49.968;19.844;2023-06-04T07:07:42;18.80;59.40
20740;DHT22;10530;49.968;19.844;2023-06-04T07:12:45;19.20;57.60
20740;DHT22;10530;49.968;19.844;2023-06-04T07:17:48;18.90;51.70
20740;DHT22;10530;49.968;19.844;2023-06-04T07:22:51;19.00;50.40
20740;DHT22;10530;49.968;19.844;2023-06-04T07:27:54;19.30;47.20
20740;DHT22;10530;49.968;19.844;2023-06-04T07:33:00;19.40;44.40
20740;DHT22;10530;49.968;19.844;2023-06-04T07:38:03;20.10;38.50
20740;DHT22;10530;49.968;19.844;2023-06-04T07:43:06;20.10;28.50
20740;DHT22;10530;49.968;19.844;2023-06-04T07:48:12;20.30;26.40
20740;DHT22;10530;49.968;19.844;2023-06-04T07:53:14;20.50;26.50
20740;DHT22;10530;49.968;19.844;2023-06-04T07:58:17;20.00;24.40
20740;DHT22;10530;49.968;19.844;2023-06-04T08:03:20;20.30;23.50
20740;DHT22;10530;49.968;19.844;2023-06-04T08:08:23;20.70;21.50
20740;DHT22;10530;49.968;19.844;2023-06-04T08:13:26;20.40;18.90
20740;DHT22;10530;49.968;19.844;2023-06-04T08:18:29;21.70;19.70
20740;DHT22;10530;49.968;19.844;2023-06-04T08:23:52;21.30;18.00
20740;DHT22;10530;49.968;19.844;2023-06-04T08:29:14;22.10;16.50
20740;DHT22;10530;49.968;19.844;2023-06-04T08:34:19;22.30;18.70
20740;DHT22;10530;49.968;19.844;2023-06-04T08:39:22;22.90;15.80
20740;DHT22;10530;49.968;19.844;2023-06-04T08:44:25;22.40;12.80
20740;DHT22;10530;49.968;19.844;2023-06-04T08:49:34;22.20;10.70
20740;DHT22;10530;49.968;19.844;2023-06-04T08:54:40;23.00;11.70
20740;DHT22;10530;49.968;19.844;2023-06-04T08:59:43;22.50;9.60
20740;DHT22;10530;49.968;19.844;2023-06-04T09:04:47;22.70;10.30
20740;DHT22;10530;49.968;19.844;2023-06-04T09:09:52;23.50;8.40
20740;DHT22;10530;49.968;19.844;2023-06-04T09:15:13;24.30;10.70
20740;DHT22;10530;49.968;19.844;2023-06-04T09:20:20;23.60;11.70
20740;DHT22;10530;49.968;19.844;2023-06-04T09:25:25;24.00;9.80
20740;DHT22;10530;49.968;19.844;2023-06-04T09:30:29;23.60;6.70
20740;DHT22;10530;49.968;19.844;2023-06-04T09:35:32;23.80;6.40
20740;DHT22;10530;49.968;19.844;2023-06-04T09:40:36;23.60;8.90
20740;DHT22;10530;49.968;19.844;2023-06-04T09:45:42;24.80;7.50
20740;DHT22;10530;49.968;19.844;2023-06-04T09:50:45;24.70;8.50
20740;DHT22;10530;49.968;19.844;2023-06-04T09:55:59;25.00;8.10
20740;DHT22;10530;49.968;19.844;2023-06-04T10:01:04;24.30;7.00
20740;DHT22;10530;49.968;19.844;2023-06-04T10:06:08;25.40;8.40
20740;DHT22;10530;49.968;19.844;2023-06-04T10:11:13;25.60;6.10
20740;DHT22;10530;49.968;19.844;2023-06-04T10:16:20;26.50;10.90
20740;DHT22;10530;49.968;19.844;2023-06-04T10:21:36;26.70;5.60
20740;DHT22;10530;49.968;19.844;2023-06-04T10:26:41;26.20;4.20
20740;DHT22;10530;49.968;19.844;2023-06-04T10:31:44;26.70;5.00
20740;DHT22;10530;49.968;19.844;2023-06-04T10:36:48;25.60;2.20
20740;DHT22;10530;49.968;19.844;2023-06-04T10:42:04;26.10;4.10
20740;DHT22;10530;49.968;19.844;2023-06-04T10:47:21;26.30;1.00
20740;DHT22;10530;49.968;19.844;2023-06-04T10:52:27;26.50;4.90
20740;DHT22;10530;49.968;19.844;2023-06-04T10:57:31;26.40;3.50
20740;DHT22;10530;49.968;19.844;2023-06-04T11:02:34;26.70;1.00
20740;DHT22;10530;49.968;19.844;2023-06-04T11:07:41;27.20;1.00
20740;DHT22;10530;49.968;19.844;2023-06-04T11:12:47;27.60;5.40
20740;DHT22;10530;49.968;19.844;2023-06-04T11:17:55;26.90;3.70
20740;DHT22;10530;49.968;19.844;2023-06-04T11:22:59;26.90;4.80
20740;DHT22;10530;49.968;19.844;2023-06-04T11:28:02;27.00;1.00
20740;DHT22;10530;49.968;19.844;2023-06-04T11:33:06;26.30;1.00
20740;DHT22;10530;49.968;19.844;2023-06-04T11:38:09;27.10;1.90
20740;DHT22;10530;49.968;19.844;2023-06-04T11:43:13;26.30;1.00
20740;DHT22;10530;49.968;19.844;2023-06-04T11:48:17;27.20;1.00
20740;DHT22;10530;49.968;19.844;2023-06-04T11:53:20;27.30;1.00
20740;DHT22;10530;49.968;19.844;2023-06-04T11:58:24;27.40;1.00
20740;DHT22;10530;49.968;19.844;2023-06-04T12:03:40;26.90;1.00
20740;DHT22;10530;49.968;19.844;2023-06-04T12:08:51;27.70;1.00
20740;DHT22;10530;49.968;19.844;2023-06-04T12:14:05;28.10;1.00
20740;DHT22;10530;49.968;19.844;2023-06-04T12:19:12;27.90;1.00
20740;DHT22;10530;49.968;19.844;2023-06-04T12:24:16;27.80;1.00
20740;DHT22;10530;49.968;19.844;2023-06-04T12:29:18;27.90;1.00
20740;DHT22;10530;49.968;19.844;2023-06-04T12:34:22;28.00;1.00
20740;DHT22;10530;49.968;19.844;2023-06-04T12:39:25;27.90;1.00
20740;DHT22;10530;49.968;19.844;2023-06-04T12:44:28;28.00;1.00
20740;DHT22;10530;49.968;19.844;2023-06-04T12:49:31;27.60;1.00
20740;DHT22;10530;49.968;19.844;2023-06-04T12:54:33;27.70;1.00
20740;DHT22;10530;49.968;19.844;2023-06-04T12:59:36;28.00;1.00
20740;DHT22;10530;49.968;19.844;2023-06-04T13:04:39;27.70;1.00
20740;DHT22;10530;49.968;19.844;2023-06-04T13:09:43;27.70;1.00
20740;DHT22;10530;49.968;19.844;2023-06-04T13:14:46;28.30;1.00
20740;DHT22;10530;49.968;19.844;2023-06-04T13:19:50;27.80;1.00
20740;DHT22;10530;49.968;19.844;2023-06-04T13:24:53;28.30;1.00
20740;DHT22;10530;49.968;19.844;2023-06-04T13:29:55;27.70;1.00
20740;DHT22;10530;49.968;19.844;2023-06-04T13:34:58;27.90;1.00
20740;DHT22;10530;49.968;19.844;2023-06-04T13:40:01;27.90;1.00
20740;DHT22;10530;49.968;19.844;2023-06-04T13:45:04;28.00;1.00
20740;DHT22;10530;49.968;19.844;2023-06-04T13:50:07;27.70;1.00
20740;DHT22;10530;49.968;19.844;2023-06-04T13:55:12;27.20;1.00
20740;DHT22;10530;49.968;19.844;2023-06-04T14:00:15;27.70;1.00
20740;DHT22;10530;49.968;19.844;2023-06-04T14:05:18;27.80;1.00
20740;DHT22;10530;49.968;19.844;2023-06-04T14:10:21;27.40;1.00
20740;DHT22;10530;49.968;19.844;2023-06-04T14:15:24;27.40;1.00
20740;DHT22;10530;49.968;19.844;2023-06-04T14:20:26;27.50;1.00
20740;DHT22;10530;49.968;19.844;2023-06-04T14:25:29;27.40;1.30
20740;DHT22;10530;49.968;19.844;2023-06-04T14:30:32;27.50;1.00
20740;DHT22;10530;49.968;19.844;2023-06-04T14:35:35;27.40;1.00
20740;DHT22;10530;49.968;19.844;2023-06-04T14:40:38;27.20;1.00
20740;DHT22;10530;49.968;19.844;2023-06-04T14:45:41;26.10;1.00
20740;DHT22;10530;49.968;19.844;2023-06-04T14:50:44;26.80;1.00
20740;DHT22;10530;49.968;19.844;2023-06-04T14:55:47;27.20;1.00
20740;DHT22;10530;49.968;19.844;2023-06-04T15:00:49;26.80;1.00
20740;DHT22;10530;49.968;19.844;2023-06-04T15:05:52;26.70;1.00
20740;DHT22;10530;49.968;19.844;2023-06-04T15:11:04;26.60;1.00
20740;DHT22;10530;49.968;19.844;2023-06-04T15:16:08;26.20;1.00
20740;DHT22;10530;49.968;19.844;2023-06-04T15:21:10;26.50;1.00
20740;DHT22;10530;49.968;19.844;2023-06-04T15:26:13;26.60;1.00
20740;DHT22;10530;49.968;19.844;2023-06-04T15:31:16;26.50;1.00
20740;DHT22;10530;49.968;19.844;2023-06-04T15:36:19;26.40;1.00
20740;DHT22;10530;49.968;19.844;2023-06-04T15:41:22;25.60;1.00
20740;DHT22;10530;49.968;19.844;2023-06-04T15:46:25;26.10;1.00
20740;DHT22;10530;49.968;19.844;2023-06-04T15:51:28;25.80;1.00
20740;DHT22;10530;49.968;19.844;2023-06-04T15:56:30;25.80;1.00
20740;DHT22;10530;49.968;19.844;2023-06-04T16:01:33;25.40;1.00
20740;DHT22;10530;49.968;19.844;2023-06-04T16:06:36;25.60;1.00
20740;DHT22;10530;49.968;19.844;2023-06-04T16:11:39;25.50;1.00
20740;DHT22;10530;49.968;19.844;2023-06-04T16:16:42;25.20;1.00
20740;DHT22;10530;49.968;19.844;2023-06-04T16:21:48;25.00;1.00
20740;DHT22;10530;49.968;19.844;2023-06-04T16:26:51;25.00;1.60
20740;DHT22;10530;49.968;19.844;2023-06-04T16:31:54;24.60;1.00
20740;DHT22;10530;49.968;19.844;2023-06-04T16:36:57;24.60;1.60
20740;DHT22;10530;49.968;19.844;2023-06-04T16:42:00;24.20;3.50
20740;DHT22;10530;49.968;19.844;2023-06-04T16:47:05;23.80;2.90
20740;DHT22;10530;49.968;19.844;2023-06-04T16:52:08;23.50;3.30
20740;DHT22;10530;49.968;19.844;2023-06-04T16:57:11;23.10;3.00
20740;DHT22;10530;49.968;19.844;2023-06-04T17:02:14;22.80;2.60
20740;DHT22;10530;49.968;19.844;2023-06-04T17:07:17;22.80;3.00
20740;DHT22;10530;49.968;19.844;2023-06-04T17:12:20;22.50;3.30
20740;DHT22;10530;49.968;19.844;2023-06-04T17:17:23;22.50;4.30
20740;DHT22;10530;49.968;19.844;2023-06-04T17:22:25;22.30;4.50
20740;DHT22;10530;49.968;19.844;2023-06-04T17:27:28;21.90;3.80
20740;DHT22;10530;49.968;19.844;2023-06-04T17:32:31;21.70;4.60
20740;DHT22;10530;49.968;19.844;2023-06-04T17:37:34;21.50;5.10
20740;DHT22;10530;49.968;19.844;2023-06-04T17:42:38;21.00;6.30
20740;DHT22;10530;49.968;19.844;2023-06-04T17:47:40;20.60;9.70
20740;DHT22;10530;49.968;19.844;2023-06-04T17:52:43;20.30;11.90
20740;DHT22;10530;49.968;19.844;2023-06-04T17:57:50;20.00;14.40
20740;DHT22;10530;49.968;19.844;2023-06-04T18:02:53;19.50;15.70
20740;DHT22;10530;49.968;19.844;2023-06-04T18:07:56;19.20;16.60
20740;DHT22;10530;49.968;19.844;2023-06-04T18:12:58;18.90;16.60
20740;DHT22;10530;49.968;19.844;2023-06-04T18:18:01;18.60;23.60
20740;DHT22;10530;49.968;19.844;2023-06-04T18:23:04;17.90;26.00
20740;DHT22;10530;49.968;19.844;2023-06-04T18:28:07;17.60;30.00
20740;DHT22;10530;49.968;19.844;2023-06-04T18:33:10;17.10;38.10
20740;DHT22;10530;49.968;19.844;2023-06-04T18:38:13;16.90;48.40
20740;DHT22;10530;49.968;19.844;2023-06-04T18:43:17;16.80;48.40
20740;DHT22;10530;49.968;19.844;2023-06-04T18:48:20;16.60;50.30
20740;DHT22;10530;49.968;19.844;2023-06-04T18:53:23;16.30;47.20
20740;DHT22;10530;49.968;19.844;2023-06-04T18:58:26;16.10;41.40
20740;DHT22;10530;49.968;19.844;2023-06-04T19:03:29;16.00;39.10
20740;DHT22;10530;49.968;19.844;2023-06-04T19:08:31;15.80;49.20
20740;DHT22;10530;49.968;19.844;2023-06-04T19:13:34;15.40;48.30
20740;DHT22;10530;49.968;19.844;2023-06-04T19:18:37;15.30;49.30
20740;DHT22;10530;49.968;19.844;2023-06-04T19:23:40;15.20;51.40
20740;DHT22;10530;49.968;19.844;2023-06-04T19:28:42;14.90;52.80
20740;DHT22;10530;49.968;19.844;2023-06-04T19:33:45;14.80;50.00
20740;DHT22;10530;49.968;19.844;2023-06-04T19:38:48;14.80;50.30
20740;DHT22;10530;49.968;19.844;2023-06-04T19:43:51;14.80;51.90
20740;DHT22;10530;49.968;19.844;2023-06-04T19:48:54;14.70;59.30
20740;DHT22;10530;49.968;19.844;2023-06-04T19:53:56;14.50;51.10
20740;DHT22;10530;49.968;19.844;2023-06-04T19:58:59;14.40;59.80
20740;DHT22;10530;49.968;19.844;2023-06-04T20:04:03;14.30;70.60
20740;DHT22;10530;49.968;19.844;2023-06-04T20:09:07;14.20;68.40
20740;DHT22;10530;49.968;19.844;2023-06-04T20:14:10;14.10;64.60
20740;DHT22;10530;49.968;19.844;2023-06-04T20:19:13;13.90;82.10
20740;DHT22;10530;49.968;19.844;2023-06-04T20:24:16;13.70;94.80
20740;DHT22;10530;49.968;19.844;2023-06-04T20:29:22;13.60;94.30
20740;DHT22;10530;49.968;19.844;2023-06-04T20:34:25;13.40;92.80
20740;DHT22;10530;49.968;19.844;2023-06-04T20:39:32;13.40;95.40
20740;DHT22;10530;49.968;19.844;2023-06-04T20:44:36;13.30;97.30
20740;DHT22;10530;49.968;19.844;2023-06-04T20:49:39;13.10;96.30
20740;DHT22;10530;49.968;19.844;2023-06-04T20:54:42;13.00;99.90
20740;DHT22;10530;49.968;19.844;2023-06-04T20:59:44;12.80;99.90
20740;DHT22;10530;49.968;19.844;2023-06-04T21:04:47;12.40;99.90
20740;DHT22;10530;49.968;19.844;2023-06-04T21:09:50;12.20;99.90
20740;DHT22;10530;49.968;19.844;2023-06-04T21:14:52;12.10;99.90
20740;DHT22;10530;49.968;19.844;2023-06-04T21:19:55;11.80;99.90
20740;DHT22;10530;49.968;19.844;2023-06-04T21:24:58;11.40;99.90
20740;DHT22;10530;49.968;19.844;2023-06-04T21:30:01;11.30;99.90
20740;DHT22;10530;49.968;19.844;2023-06-04T21:35:06;11.20;99.90
20740;DHT22;10530;49.968;19.844;2023-06-04T21:40:09;10.90;99.90
20740;DHT22;10530;49.968;19.844;2023-06-04T21:45:12;10.90;99.90
20740;DHT22;10530;49.968;19.844;2023-06-04T21:50:15;10.90;99.90
20740;DHT22;10530;49.968;19.844;2023-06-04T21:55:19;10.90;99.90
20740;DHT22;10530;49.968;19.844;2023-06-04T22:00:22;10.70;99.90
20740;DHT22;10530;49.968;19.844;2023-06-04T22:05:26;10.50;99.90
20740;DHT22;10530;49.968;19.844;2023-06-04T22:10:29;10.50;99.90
20740;DHT22;10530;49.968;19.844;2023-06-04T22:15:32;10.30;99.90
20740;DHT22;10530;49.968;19.844;2023-06-04T22:20:34;10.30;99.90
20740;DHT22;10530;49.968;19.844;2023-06-04T22:25:37;10.10;99.90
20740;DHT22;10530;49.968;19.844;2023-06-04T22:30:40;10.00;99.90
20740;DHT22;10530;49.968;19.844;2023-06-04T22:35:43;10.10;99.90
20740;DHT22;10530;49.968;19.844;2023-06-04T22:40:45;9.90;99.90
20740;DHT22;10530;49.968;19.844;2023-06-04T22:45:48;9.70;99.90
20740;DHT22;10530;49.968;19.844;2023-06-04T22:50:51;9.60;99.90
20740;DHT22;10530;49.968;19.844;2023-06-04T22:55:53;9.50;99.90
20740;DHT22;10530;49.968;19.844;2023-06-04T23:00:56;9.50;99.90
20740;DHT22;10530;49.968;19.844;2023-06-04T23:05:59;9.40;99.90
20740;DHT22;10530;49.968;19.844;2023-06-04T23:11:02;9.30;99.90
20740;DHT22;10530;49.968;19.844;2023-06-04T23:16:05;9.30;99.90
20740;DHT22;10530;49.968;19.844;2023-06-04T23:21:09;9.20;99.90
20740;DHT22;10530;49.968;19.844;2023-06-04T23:26:12;9.20;99.90
20740;DHT22;10530;49.968;19.844;2023-06-04T23:31:16;9.20;99.90
20740;DHT22;10530;49.968;19.844;2023-06-04T23:36:18;9.00;99.90
20740;DHT22;10530;49.968;19.844;2023-06-04T23:41:21;8.90;99.90
20740;DHT22;10530;49.968;19.844;2023-06-04T23:46:24;9.00;99.90
20740;DHT22;10530;49.968;19.844;2023-06-04T23:51:27;8.80;99.90
20740;DHT22;10530;49.968;19.844;2023-06-04T23:56:30;8.70;99.90
